Time;durP1;ratioP1;P1;durP2;ratioP2;P2;SDS_P1;SDS_P2;PMS_P1;PMS_P2;Temp;Humidity;BMP_temperature;BMP_pressure;BME280_temperature;BME280_humidity;BME280_pressure;Samples;Min_cycle;Max_cycle;Signal;HPM_P1;HPM_P2
2021/11/23 00:00:12;;;;;;;1.48;0.95;;;9.60;93.20;;;;;;5084877;28;20024;-75
2021/11/23 00:02:42;;;;;;;4.10;1.17;;;9.60;93.20;;;;;;5092125;28;20105;-75
2021/11/23 00:05:10;;;;;;;0.30;0.30;;;9.60;93.30;;;;;;5093792;28;20467;-75
2021/11/23 00:07:36;;;;;;;0.60;0.60;;;9.60;93.40;;;;;;5081333;28;20221;-75
2021/11/23 00:10:03;;;;;;;2.15;0.90;;;9.60;93.40;;;;;;5087545;28;20041;-75
2021/11/23 00:12:29;;;;;;;2.25;1.15;;;9.70;93.40;;;;;;5086983;28;20055;-75
2021/11/23 00:14:54;;;;;;;0.82;0.60;;;9.70;93.50;;;;;;5089489;28;20086;-75
2021/11/23 00:17:20;;;;;;;1.17;0.95;;;9.70;93.50;;;;;;5085563;28;20597;-76
2021/11/23 00:19:46;;;;;;;2.15;0.82;;;9.70;93.50;;;;;;5078172;28;20522;-75
2021/11/23 00:22:12;;;;;;;1.35;0.73;;;9.70;93.60;;;;;;5092535;28;20072;-75
2021/11/23 00:24:38;;;;;;;1.13;1.05;;;9.70;93.60;;;;;;5091289;28;20051;-75
2021/11/23 00:27:05;;;;;;;2.38;0.60;;;9.70;93.70;;;;;;5080110;28;20032;-75
2021/11/23 00:29:31;;;;;;;0.47;0.47;;;9.70;93.70;;;;;;5082838;28;20028;-75
2021/11/23 00:31:57;;;;;;;1.73;0.52;;;9.70;93.80;;;;;;5077735;28;20062;-75
2021/11/23 00:34:23;;;;;;;3.25;1.05;;;9.70;93.80;;;;;;5083820;28;20051;-75
2021/11/23 00:36:49;;;;;;;1.45;0.85;;;9.80;93.90;;;;;;5092279;28;20040;-75
2021/11/23 00:39:14;;;;;;;3.97;1.20;;;9.80;93.80;;;;;;5091271;28;20055;-75
2021/11/23 00:41:47;;;;;;;0.43;0.40;;;9.80;93.80;;;;;;5091602;28;20041;-75
2021/11/23 00:44:14;;;;;;;3.28;1.15;;;9.90;93.80;;;;;;5092072;28;20024;-75
2021/11/23 00:46:39;;;;;;;2.28;0.55;;;9.90;93.70;;;;;;5092112;28;20097;-75
2021/11/23 00:49:05;;;;;;;6.43;1.67;;;10.00;93.60;;;;;;5080156;28;20028;-75
2021/11/23 00:51:31;;;;;;;5.85;1.33;;;10.00;93.60;;;;;;5082656;28;20020;-75
2021/11/23 00:53:56;;;;;;;5.07;1.02;;;10.00;93.50;;;;;;5091378;28;20119;-75
2021/11/23 00:56:22;;;;;;;0.52;0.52;;;10.00;93.50;;;;;;5092732;28;20175;-75
2021/11/23 00:58:47;;;;;;;0.57;0.50;;;10.10;93.40;;;;;;5093509;28;20119;-75
2021/11/23 01:01:13;;;;;;;1.65;1.10;;;10.10;93.40;;;;;;5087768;28;20043;-75
2021/11/23 01:03:39;;;;;;;2.38;1.15;;;10.10;93.40;;;;;;5092628;28;20070;-75
2021/11/23 01:06:04;;;;;;;2.22;1.02;;;10.10;93.50;;;;;;5090554;28;20029;-76
2021/11/23 01:08:31;;;;;;;3.25;1.08;;;10.20;93.50;;;;;;5092347;28;20020;-75
2021/11/23 01:11:03;;;;;;;5.00;0.82;;;10.20;93.40;;;;;;5092451;28;20119;-75
2021/11/23 01:13:28;;;;;;;2.08;1.05;;;10.20;93.30;;;;;;5091601;28;20038;-75
2021/11/23 01:15:54;;;;;;;5.28;1.30;;;10.20;93.30;;;;;;5091162;28;20028;-75
2021/11/23 01:18:20;;;;;;;0.38;0.38;;;10.30;93.30;;;;;;5087629;28;20028;-75
2021/11/23 01:20:46;;;;;;;3.03;0.68;;;10.30;93.40;;;;;;5073829;28;20094;-75
2021/11/23 01:23:11;;;;;;;6.13;1.85;;;10.20;93.40;;;;;;5073767;28;20432;-75
2021/11/23 01:25:37;;;;;;;1.63;0.88;;;10.30;93.40;;;;;;5086862;28;20049;-75
2021/11/23 01:28:03;;;;;;;9.48;1.77;;;10.30;93.40;;;;;;5081708;28;20021;-75
2021/11/23 01:30:29;;;;;;;2.25;0.90;;;10.30;93.50;;;;;;5088875;28;20369;-76
2021/11/23 01:32:54;;;;;;;1.17;0.80;;;10.30;93.50;;;;;;5086185;28;20032;-75
2021/11/23 01:35:20;;;;;;;5.07;2.08;;;10.40;93.60;;;;;;5092444;28;20165;-76
2021/11/23 01:37:46;;;;;;;10.20;1.60;;;10.40;93.50;;;;;;5090902;28;20028;-75
2021/11/23 01:40:14;;;;;;;9.43;1.60;;;10.40;93.70;;;;;;5091564;28;20043;-75
2021/11/23 01:42:40;;;;;;;2.47;1.00;;;10.50;93.90;;;;;;5090923;28;20040;-75
2021/11/23 01:45:10;;;;;;;8.38;1.50;;;10.60;93.80;;;;;;5089494;28;20056;-75
2021/11/23 01:47:36;;;;;;;4.93;1.10;;;10.60;93.60;;;;;;5091210;28;20035;-75
2021/11/23 01:50:02;;;;;;;5.38;1.27;;;10.70;93.60;;;;;;5090010;28;20031;-75
2021/11/23 01:52:28;;;;;;;4.13;1.20;;;10.70;93.80;;;;;;5083308;28;20020;-75
2021/11/23 01:54:54;;;;;;;3.30;0.70;;;10.70;94.00;;;;;;5084382;28;20030;-75
2021/11/23 01:57:20;;;;;;;2.58;0.60;;;10.70;94.00;;;;;;5078739;28;20028;-79
2021/11/23 01:59:47;;;;;;;2.67;0.70;;;10.80;94.10;;;;;;5091975;28;20035;-75
2021/11/23 02:02:13;;;;;;;4.85;1.05;;;10.80;94.10;;;;;;5090029;28;20046;-75
2021/11/23 02:04:40;;;;;;;1.77;0.60;;;10.80;94.20;;;;;;5061495;28;20044;-75
2021/11/23 02:07:06;;;;;;;3.17;0.85;;;10.90;94.40;;;;;;5087662;28;20044;-75
2021/11/23 02:09:33;;;;;;;2.15;0.63;;;11.00;94.50;;;;;;5089581;28;20020;-75
2021/11/23 02:12:00;;;;;;;5.32;0.63;;;11.00;94.60;;;;;;5089828;28;20032;-75
2021/11/23 02:14:28;;;;;;;3.90;0.70;;;11.00;94.70;;;;;;5091136;28;20533;-75
2021/11/23 02:16:54;;;;;;;1.92;0.60;;;11.00;94.60;;;;;;5090632;28;20038;-75
2021/11/23 02:19:20;;;;;;;1.52;0.52;;;11.10;94.60;;;;;;5088230;28;20035;-75
2021/11/23 02:21:46;;;;;;;1.60;0.60;;;11.10;94.50;;;;;;5088407;28;20048;-75
2021/11/23 02:24:12;;;;;;;3.03;1.25;;;11.10;94.30;;;;;;5093420;28;20459;-75
2021/11/23 02:26:38;;;;;;;2.92;0.73;;;11.10;94.20;;;;;;5090662;28;20028;-75
2021/11/23 02:29:03;;;;;;;0.95;0.60;;;11.10;94.20;;;;;;5091452;28;20099;-75
2021/11/23 02:31:29;;;;;;;0.80;0.50;;;11.10;94.00;;;;;;5091196;28;20036;-76
2021/11/23 02:33:55;;;;;;;6.22;0.95;;;11.10;93.90;;;;;;5089488;28;20017;-75
2021/11/23 02:36:21;;;;;;;2.17;0.68;;;11.10;93.90;;;;;;5091949;28;20024;-75
2021/11/23 02:38:49;;;;;;;1.63;0.68;;;11.10;93.80;;;;;;5094804;28;20028;-75
2021/11/23 02:41:15;;;;;;;8.82;1.60;;;11.10;93.90;;;;;;5094106;28;20048;-75
2021/11/23 02:43:41;;;;;;;6.40;1.02;;;11.20;94.00;;;;;;5095067;28;20119;-75
2021/11/23 02:46:08;;;;;;;3.65;0.93;;;11.20;94.00;;;;;;5094298;28;20107;-75
2021/11/23 02:48:34;;;;;;;2.38;0.60;;;11.20;93.90;;;;;;5094343;28;20035;-75
2021/11/23 02:51:08;;;;;;;3.05;0.90;;;11.20;93.90;;;;;;5095102;28;20032;-74
2021/11/23 02:53:33;;;;;;;3.42;0.77;;;11.20;93.70;;;;;;5095355;28;20024;-75
2021/11/23 02:56:00;;;;;;;4.30;0.60;;;11.20;93.60;;;;;;5092636;28;20032;-75
2021/11/23 02:58:29;;;;;;;1.92;0.85;;;11.20;93.60;;;;;;5092873;28;20032;-74
2021/11/23 03:00:57;;;;;;;6.07;0.77;;;11.20;93.50;;;;;;5092881;28;20036;-75
2021/11/23 03:03:23;;;;;;;2.08;0.95;;;11.20;93.50;;;;;;5087923;28;20178;-75
2021/11/23 03:05:48;;;;;;;5.95;0.60;;;11.20;93.40;;;;;;5087005;28;20106;-75
2021/11/23 03:08:14;;;;;;;7.15;1.15;;;11.20;93.40;;;;;;5093539;28;20016;-75
2021/11/23 03:10:40;;;;;;;12.20;1.33;;;11.20;93.50;;;;;;5085249;28;20039;-75
2021/11/23 03:13:06;;;;;;;11.35;1.23;;;11.20;93.80;;;;;;5090729;28;20032;-75
2021/11/23 03:15:32;;;;;;;2.72;0.90;;;11.20;93.50;;;;;;5086791;28;20155;-75
2021/11/23 03:17:58;;;;;;;3.58;0.88;;;11.30;93.60;;;;;;5090471;28;20499;-75
2021/11/23 03:20:25;;;;;;;7.68;1.05;;;11.30;93.50;;;;;;5092879;28;20044;-75
2021/11/23 03:22:52;;;;;;;3.33;1.00;;;11.30;93.40;;;;;;5096261;28;20055;-75
2021/11/23 03:25:18;;;;;;;5.55;0.68;;;11.30;93.30;;;;;;5093347;28;20490;-75
2021/11/23 03:27:44;;;;;;;2.00;0.77;;;11.30;93.10;;;;;;5096575;28;20023;-75
2021/11/23 03:30:12;;;;;;;6.82;1.48;;;11.20;92.80;;;;;;5091125;28;20028;-75
2021/11/23 03:32:38;;;;;;;2.97;0.45;;;11.20;92.70;;;;;;5093750;28;20042;-75
2021/11/23 03:35:05;;;;;;;4.70;0.68;;;11.20;92.60;;;;;;5094036;28;20116;-75
2021/11/23 03:37:31;;;;;;;4.90;0.60;;;11.10;92.60;;;;;;5098417;28;20028;-75
2021/11/23 03:39:58;;;;;;;9.07;1.45;;;11.10;92.60;;;;;;5088546;28;20028;-75
2021/11/23 03:42:24;;;;;;;4.25;1.00;;;11.00;92.60;;;;;;5082517;28;20040;-75
2021/11/23 03:44:50;;;;;;;3.25;0.95;;;11.00;92.50;;;;;;5082692;28;20438;-75
2021/11/23 03:47:17;;;;;;;6.88;1.23;;;11.00;92.50;;;;;;5091276;28;20068;-75
2021/11/23 03:49:46;;;;;;;6.13;1.17;;;11.00;92.60;;;;;;5093645;28;20060;-75
2021/11/23 03:52:13;;;;;;;5.82;1.00;;;11.00;92.50;;;;;;5092187;28;20055;-75
2021/11/23 03:54:38;;;;;;;10.25;1.10;;;11.00;92.50;;;;;;5097682;28;20034;-75
2021/11/23 03:57:04;;;;;;;6.78;1.40;;;10.90;92.50;;;;;;5093161;28;20160;-75
2021/11/23 03:59:30;;;;;;;7.28;1.55;;;10.90;92.60;;;;;;5091448;28;20035;-75
2021/11/23 04:01:56;;;;;;;13.70;1.30;;;11.00;92.70;;;;;;5093421;28;20048;-74
2021/11/23 04:04:21;;;;;;;8.18;1.20;;;11.10;92.80;;;;;;5088209;28;20028;-75
2021/11/23 04:06:47;;;;;;;9.10;1.27;;;11.10;92.80;;;;;;5075493;28;20032;-75
2021/11/23 04:09:13;;;;;;;5.40;1.73;;;11.10;92.80;;;;;;5077861;28;20463;-75
2021/11/23 04:11:38;;;;;;;7.82;1.30;;;11.20;92.80;;;;;;5075047;28;20033;-75
2021/11/23 04:14:05;;;;;;;15.38;1.10;;;11.20;92.80;;;;;;5075594;28;20025;-75
2021/11/23 04:16:30;;;;;;;10.85;2.03;;;11.20;92.80;;;;;;5076358;28;20480;-75
2021/11/23 04:18:56;;;;;;;14.98;1.75;;;11.20;92.70;;;;;;5086336;28;20078;-75
2021/11/23 04:21:22;;;;;;;12.05;1.33;;;11.30;92.70;;;;;;5089805;28;20064;-76
2021/11/23 04:23:47;;;;;;;15.05;1.75;;;11.30;92.70;;;;;;5076542;28;20059;-75
2021/11/23 04:26:13;;;;;;;9.20;2.10;;;11.20;92.60;;;;;;5088810;28;20561;-75
2021/11/23 04:28:39;;;;;;;11.25;1.83;;;11.30;92.60;;;;;;5093196;28;20098;-75
2021/11/23 04:31:05;;;;;;;8.93;1.67;;;11.30;92.60;;;;;;5086740;28;20036;-75
2021/11/23 04:33:31;;;;;;;13.77;1.83;;;11.20;92.60;;;;;;5087471;28;20099;-75
2021/11/23 04:35:57;;;;;;;10.25;1.50;;;11.20;92.60;;;;;;5075821;28;20082;-75
2021/11/23 04:38:22;;;;;;;14.57;1.60;;;11.20;92.50;;;;;;5086336;28;20033;-75
2021/11/23 04:40:48;;;;;;;16.88;1.73;;;11.20;92.50;;;;;;5086686;28;20050;-75
2021/11/23 04:43:14;;;;;;;10.77;1.90;;;11.20;92.50;;;;;;5086575;28;20035;-75
2021/11/23 04:45:40;;;;;;;8.30;1.42;;;11.10;92.40;;;;;;5092987;28;20368;-75
2021/11/23 04:48:07;;;;;;;6.70;1.35;;;11.10;92.40;;;;;;5091251;28;20024;-75
2021/11/23 04:50:34;;;;;;;9.98;1.27;;;11.10;92.40;;;;;;5090651;28;20076;-75
2021/11/23 04:53:02;;;;;;;10.63;1.58;;;11.00;92.40;;;;;;5092697;28;20028;-75
2021/11/23 04:55:27;;;;;;;13.52;1.65;;;11.00;92.40;;;;;;5077165;28;20097;-75
2021/11/23 04:57:53;;;;;;;8.98;1.35;;;11.00;92.40;;;;;;5080813;28;20484;-75
2021/11/23 05:00:19;;;;;;;10.40;1.45;;;11.00;92.40;;;;;;5091054;28;20027;-75
2021/11/23 05:02:45;;;;;;;8.25;2.15;;;10.90;92.40;;;;;;5091863;28;20043;-74
2021/11/23 05:05:13;;;;;;;9.63;1.58;;;11.00;92.40;;;;;;5087378;28;20023;-74
2021/11/23 05:07:40;;;;;;;11.73;1.30;;;10.90;92.20;;;;;;5086810;28;20464;-75
2021/11/23 05:10:07;;;;;;;6.60;1.42;;;10.90;92.20;;;;;;5088931;28;20493;-75
2021/11/23 05:12:33;;;;;;;9.07;1.50;;;11.00;92.10;;;;;;5091494;28;20379;-75
2021/11/23 05:15:00;;;;;;;12.70;1.45;;;10.90;92.00;;;;;;5086953;28;20028;-75
2021/11/23 05:17:26;;;;;;;6.10;1.33;;;11.00;92.00;;;;;;5092962;28;20040;-75
2021/11/23 05:19:53;;;;;;;15.45;1.55;;;11.00;92.00;;;;;;5090944;28;20047;-75
2021/11/23 05:22:18;;;;;;;18.95;2.40;;;10.90;92.00;;;;;;5088900;28;20089;-75
2021/11/23 05:24:44;;;;;;;7.93;1.40;;;11.00;92.00;;;;;;5092115;28;20027;-75
2021/11/23 05:27:10;;;;;;;8.85;1.23;;;10.90;92.10;;;;;;5095793;28;20101;-75
2021/11/23 05:29:36;;;;;;;10.02;1.45;;;11.00;92.10;;;;;;5090346;28;20031;-75
2021/11/23 05:32:02;;;;;;;15.43;1.45;;;11.00;92.10;;;;;;5090116;28;20047;-75
2021/11/23 05:34:28;;;;;;;8.50;1.30;;;11.00;92.10;;;;;;5091350;28;20024;-75
2021/11/23 05:36:53;;;;;;;10.63;1.63;;;11.00;92.10;;;;;;5088734;28;20478;-75
2021/11/23 05:39:19;;;;;;;12.55;1.13;;;10.90;91.90;;;;;;5083594;28;20039;-75
2021/11/23 05:41:45;;;;;;;11.40;1.67;;;11.00;91.80;;;;;;5077675;28;20032;-75
2021/11/23 05:44:11;;;;;;;17.20;2.08;;;10.90;91.80;;;;;;5082134;28;20440;-75
2021/11/23 05:46:39;;;;;;;12.15;1.17;;;10.90;91.80;;;;;;5090210;28;20044;-75
2021/11/23 05:49:05;;;;;;;4.65;1.20;;;10.90;91.80;;;;;;5090829;28;20024;-75
2021/11/23 05:51:31;;;;;;;6.35;1.13;;;10.90;91.70;;;;;;5080089;28;20123;-74
2021/11/23 05:53:57;;;;;;;7.65;1.27;;;10.80;91.70;;;;;;5089467;28;20117;-75
2021/11/23 05:56:22;;;;;;;14.63;2.05;;;10.80;91.70;;;;;;5082077;28;20125;-75
2021/11/23 05:58:49;;;;;;;10.68;1.88;;;10.90;91.60;;;;;;5077485;28;20035;-75
2021/11/23 06:01:15;;;;;;;7.07;1.55;;;10.80;91.50;;;;;;5079403;28;20126;-75
2021/11/23 06:03:44;;;;;;;8.50;1.38;;;10.80;91.50;;;;;;5081181;28;20091;-75
2021/11/23 06:06:11;;;;;;;6.82;1.17;;;10.80;91.40;;;;;;5088590;28;20412;-75
2021/11/23 06:08:37;;;;;;;8.00;1.23;;;10.80;91.40;;;;;;5090054;28;20036;-74
2021/11/23 06:11:03;;;;;;;12.57;1.40;;;10.80;91.30;;;;;;5089843;28;20024;-80
2021/11/23 06:13:29;;;;;;;9.95;1.33;;;10.80;91.30;;;;;;5088045;28;20028;-78
2021/11/23 06:15:55;;;;;;;2.90;0.88;;;10.80;91.20;;;;;;5088419;28;20078;-76
2021/11/23 06:18:21;;;;;;;5.93;1.25;;;10.80;91.20;;;;;;5085377;28;20131;-77
2021/11/23 06:20:51;;;;;;;9.30;1.40;;;10.80;91.20;;;;;;5085869;28;20055;-76
2021/11/23 06:23:19;;;;;;;5.00;1.88;;;10.70;91.10;;;;;;5088630;28;20138;-76
2021/11/23 06:25:46;;;;;;;4.40;1.20;;;10.80;91.00;;;;;;5087108;28;20026;-75
2021/11/23 06:28:16;;;;;;;3.22;1.05;;;10.80;91.00;;;;;;5090128;28;20043;-75
2021/11/23 06:30:43;;;;;;;4.70;1.15;;;10.70;91.00;;;;;;5084705;28;20117;-75
2021/11/23 06:33:09;;;;;;;10.57;1.30;;;10.70;91.00;;;;;;5087126;28;20028;-75
2021/11/23 06:35:35;;;;;;;6.88;1.55;;;10.70;91.00;;;;;;5087810;28;20028;-74
2021/11/23 06:38:05;;;;;;;10.60;1.40;;;10.70;90.90;;;;;;5088604;28;20042;-74
2021/11/23 06:40:33;;;;;;;5.03;1.10;;;10.70;90.90;;;;;;5087659;28;20447;-75
2021/11/23 06:43:00;;;;;;;5.68;1.05;;;10.70;90.90;;;;;;5087145;28;20028;-76
2021/11/23 06:45:26;;;;;;;6.28;1.45;;;10.70;91.00;;;;;;5089146;28;20556;-76
2021/11/23 06:47:52;;;;;;;5.00;1.55;;;10.60;91.10;;;;;;5086361;28;20042;-76
2021/11/23 06:50:18;;;;;;;5.82;1.00;;;10.60;91.10;;;;;;5087924;28;20036;-77
2021/11/23 06:52:44;;;;;;;3.30;0.65;;;10.60;91.20;;;;;;5084669;28;20031;-76
2021/11/23 06:55:10;;;;;;;2.63;0.95;;;10.60;91.30;;;;;;5087679;28;20024;-76
2021/11/23 06:57:36;;;;;;;6.88;0.75;;;10.60;91.40;;;;;;5086568;28;20041;-73
2021/11/23 07:00:05;;;;;;;6.13;0.90;;;10.60;91.40;;;;;;5084868;28;20119;-77
2021/11/23 07:02:30;;;;;;;3.45;0.55;;;10.60;91.50;;;;;;5087941;28;20247;-77
2021/11/23 07:04:56;;;;;;;2.38;0.98;;;10.60;91.60;;;;;;5086990;28;20091;-77
2021/11/23 07:07:22;;;;;;;2.58;0.80;;;10.70;91.60;;;;;;5086322;28;20542;-76
2021/11/23 07:09:47;;;;;;;4.78;1.00;;;10.70;91.60;;;;;;5087558;28;20032;-77
2021/11/23 07:12:13;;;;;;;6.28;1.02;;;10.70;91.60;;;;;;5088288;28;20114;-78
2021/11/23 07:14:39;;;;;;;3.85;0.68;;;10.70;91.60;;;;;;5086452;28;20081;-76
2021/11/23 07:17:05;;;;;;;5.13;0.80;;;10.70;91.60;;;;;;5087984;28;20032;-83
2021/11/23 07:19:31;;;;;;;6.43;0.88;;;10.80;91.80;;;;;;5087934;28;20062;-77
2021/11/23 07:21:56;;;;;;;4.45;0.70;;;10.70;91.40;;;;;;5084606;28;20079;-78
2021/11/23 07:24:22;;;;;;;2.58;0.98;;;10.70;91.30;;;;;;5090393;28;20036;-76
2021/11/23 07:26:48;;;;;;;6.47;1.00;;;10.60;91.30;;;;;;5091809;28;20038;-77
2021/11/23 07:29:14;;;;;;;3.17;0.70;;;10.70;91.40;;;;;;5093328;28;20958;-76
2021/11/23 07:31:40;;;;;;;4.80;0.90;;;10.60;91.40;;;;;;5090936;28;20456;-80
2021/11/23 07:34:06;;;;;;;10.27;0.90;;;10.60;91.40;;;;;;5091864;28;20033;-75
2021/11/23 07:36:32;;;;;;;10.38;1.13;;;10.60;91.40;;;;;;5094449;28;20039;-76
2021/11/23 07:39:01;;;;;;;7.95;0.70;;;10.60;91.40;;;;;;5093730;28;20028;-76
2021/11/23 07:41:28;;;;;;;8.30;1.25;;;10.60;91.40;;;;;;5084042;28;20051;-74
2021/11/23 07:43:55;;;;;;;8.38;1.00;;;10.70;91.40;;;;;;5077695;28;20459;-74
2021/11/23 07:46:21;;;;;;;6.15;1.10;;;10.60;91.30;;;;;;5092883;28;20028;-74
2021/11/23 07:48:46;;;;;;;9.48;1.25;;;10.60;91.30;;;;;;5091418;28;20105;-74
2021/11/23 07:51:12;;;;;;;7.80;0.98;;;10.60;91.20;;;;;;5092913;28;20054;-74
2021/11/23 07:53:38;;;;;;;4.53;0.80;;;10.50;91.20;;;;;;5080026;28;20035;-74
2021/11/23 07:56:05;;;;;;;3.42;0.98;;;10.50;91.30;;;;;;5091361;28;20032;-75
2021/11/23 07:58:31;;;;;;;5.72;1.08;;;10.50;91.40;;;;;;5093532;28;20028;-75
2021/11/23 08:00:57;;;;;;;3.97;1.05;;;10.50;91.40;;;;;;5089794;28;20083;-74
2021/11/23 08:03:23;;;;;;;5.68;1.50;;;10.50;91.40;;;;;;5091858;28;20424;-74
2021/11/23 08:05:49;;;;;;;8.38;2.88;;;10.50;91.50;;;;;;5091013;28;20037;-75
2021/11/23 08:08:15;;;;;;;6.53;1.75;;;10.50;91.40;;;;;;5091666;28;20433;-75
2021/11/23 08:10:41;;;;;;;14.93;1.45;;;10.50;91.40;;;;;;5093486;28;20028;-75
2021/11/23 08:13:08;;;;;;;7.47;1.02;;;10.50;91.40;;;;;;5088370;28;20082;-74
2021/11/23 08:15:37;;;;;;;12.77;1.40;;;10.40;91.40;;;;;;5083346;28;20032;-74
2021/11/23 08:18:04;;;;;;;9.93;1.50;;;10.40;91.40;;;;;;5089474;28;20056;-74
2021/11/23 08:20:30;;;;;;;3.55;1.30;;;10.40;91.50;;;;;;5092999;28;20040;-74
2021/11/23 08:22:56;;;;;;;5.25;1.48;;;10.50;91.60;;;;;;5091556;28;20087;-75
2021/11/23 08:25:22;;;;;;;7.63;1.40;;;10.50;91.60;;;;;;5092682;28;20020;-74
2021/11/23 08:27:49;;;;;;;7.32;1.25;;;10.50;91.60;;;;;;5096979;28;20040;-74
2021/11/23 08:30:15;;;;;;;10.00;1.27;;;10.50;91.60;;;;;;5081603;28;20459;-74
2021/11/23 08:32:41;;;;;;;3.78;1.20;;;10.50;91.50;;;;;;5092321;28;20035;-75
2021/11/23 08:35:09;;;;;;;4.22;1.25;;;10.50;91.50;;;;;;5088632;28;20024;-75
2021/11/23 08:37:35;;;;;;;3.35;0.80;;;10.50;91.50;;;;;;5093647;28;20407;-74
2021/11/23 08:40:02;;;;;;;4.00;1.20;;;10.50;91.50;;;;;;5086430;28;20020;-74
2021/11/23 08:42:28;;;;;;;7.47;1.15;;;10.50;91.50;;;;;;5083606;28;20032;-74
2021/11/23 08:44:54;;;;;;;3.85;1.23;;;10.50;91.50;;;;;;5079777;28;20392;-74
2021/11/23 08:47:21;;;;;;;3.45;0.80;;;10.50;91.50;;;;;;5076410;28;20039;-74
2021/11/23 08:49:48;;;;;;;7.57;1.10;;;10.50;91.60;;;;;;5078261;28;20396;-75
2021/11/23 08:52:15;;;;;;;7.57;1.08;;;10.50;91.50;;;;;;5076398;28;20400;-74
2021/11/23 08:54:41;;;;;;;5.78;0.93;;;10.50;91.50;;;;;;5076317;28;20035;-74
2021/11/23 08:57:08;;;;;;;1.90;0.70;;;10.50;91.50;;;;;;5090969;28;20044;-74
2021/11/23 08:59:43;;;;;;;6.50;1.05;;;10.50;91.60;;;;;;5090092;28;20020;-75
2021/11/23 09:02:13;;;;;;;9.23;1.00;;;10.50;91.60;;;;;;5091293;28;20127;-74
2021/11/23 09:04:40;;;;;;;8.50;0.85;;;10.50;91.70;;;;;;5090466;28;20024;-73
2021/11/23 09:07:08;;;;;;;9.60;1.50;;;10.50;91.80;;;;;;5083488;28;20110;-74
2021/11/23 09:09:39;;;;;;;7.35;1.80;;;10.60;92.00;;;;;;5087275;28;20514;-73
2021/11/23 09:12:05;;;;;;;4.15;1.10;;;10.60;92.10;;;;;;5084922;28;20059;-73
2021/11/23 09:14:33;;;;;;;6.30;0.88;;;10.60;92.20;;;;;;5084309;28;20033;-73
2021/11/23 09:16:59;;;;;;;4.10;0.73;;;10.70;92.40;;;;;;5091276;28;20426;-73
2021/11/23 09:19:31;;;;;;;2.08;0.45;;;10.70;92.30;;;;;;5091978;28;20028;-73
2021/11/23 09:21:57;;;;;;;10.02;1.30;;;10.80;92.30;;;;;;5089582;28;20060;-73
2021/11/23 09:24:23;;;;;;;4.65;1.02;;;10.80;92.40;;;;;;5092124;28;20028;-72
2021/11/23 09:26:51;;;;;;;4.95;1.20;;;10.90;92.50;;;;;;5087229;28;20035;-73
2021/11/23 09:29:19;;;;;;;4.18;1.50;;;10.90;92.40;;;;;;5096021;28;20044;-73
2021/11/23 09:31:45;;;;;;;4.28;0.88;;;10.90;92.30;;;;;;5087413;28;20051;-73
2021/11/23 09:34:11;;;;;;;1.73;0.80;;;11.00;92.30;;;;;;5074739;28;20464;-72
2021/11/23 09:36:38;;;;;;;4.63;0.98;;;11.00;92.10;;;;;;5079573;28;20430;-73
2021/11/23 09:39:05;;;;;;;3.58;0.57;;;11.00;92.00;;;;;;5091536;28;20068;-73
2021/11/23 09:41:33;;;;;;;5.85;0.82;;;10.90;91.90;;;;;;5082861;28;20470;-73
2021/11/23 09:44:00;;;;;;;8.50;1.17;;;10.90;92.00;;;;;;5079676;28;20070;-73
2021/11/23 09:46:31;;;;;;;8.18;1.20;;;11.00;92.00;;;;;;5085548;28;20368;-72
2021/11/23 09:48:57;;;;;;;12.13;1.33;;;11.00;92.20;;;;;;5087736;28;20469;-73
2021/11/23 09:51:25;;;;;;;7.60;1.42;;;11.00;92.50;;;;;;5076588;28;20033;-74
2021/11/23 09:53:52;;;;;;;10.35;1.40;;;11.20;92.80;;;;;;5080087;28;20040;-73
2021/11/23 09:56:18;;;;;;;12.20;1.52;;;11.20;92.50;;;;;;5090972;28;20152;-72
2021/11/23 09:58:44;;;;;;;4.00;1.35;;;11.30;92.70;;;;;;5080615;28;20464;-73
2021/11/23 10:01:11;;;;;;;4.38;0.90;;;11.30;92.30;;;;;;5090492;28;20031;-72
2021/11/23 10:03:38;;;;;;;8.73;1.45;;;11.30;91.80;;;;;;5090161;28;20089;-72
2021/11/23 10:06:12;;;;;;;1.02;0.77;;;11.20;91.80;;;;;;5086676;28;20036;-72
2021/11/23 10:08:40;;;;;;;4.78;1.00;;;11.20;91.60;;;;;;5071968;28;20047;-72
2021/11/23 10:11:07;;;;;;;2.78;0.68;;;11.20;91.50;;;;;;5086447;28;20027;-73
2021/11/23 10:13:40;;;;;;;5.82;1.50;;;11.10;91.40;;;;;;5091998;28;20031;-73
2021/11/23 10:16:06;;;;;;;9.35;1.10;;;11.10;91.80;;;;;;5089444;28;20460;-73
2021/11/23 10:18:32;;;;;;;0.90;0.90;;;11.10;91.80;;;;;;5090378;28;20115;-72
2021/11/23 10:21:03;;;;;;;7.93;1.63;;;11.10;91.60;;;;;;5089585;28;20055;-72
2021/11/23 10:23:39;;;;;;;13.52;1.48;;;11.10;91.80;;;;;;5087197;28;20028;-73
2021/11/23 10:26:21;;;;;;;6.38;1.15;;;11.10;92.00;;;;;;5090213;28;20028;-73
2021/11/23 10:28:47;;;;;;;11.02;1.30;;;11.10;92.10;;;;;;5082779;28;20063;-76
2021/11/23 10:31:16;;;;;;;10.20;1.17;;;11.20;92.40;;;;;;5084396;28;20075;-78
2021/11/23 10:33:43;;;;;;;7.43;0.88;;;11.10;92.60;;;;;;5089005;28;20024;-74
2021/11/23 10:36:14;;;;;;;2.05;0.70;;;11.20;92.70;;;;;;5090759;28;20039;-74
2021/11/23 10:38:40;;;;;;;5.20;1.00;;;11.20;92.80;;;;;;5087889;28;20480;-75
2021/11/23 10:41:16;;;;;;;0.82;0.45;;;11.20;92.80;;;;;;5091381;28;20043;-74
2021/11/23 10:43:43;;;;;;;1.88;0.55;;;11.30;92.70;;;;;;5089037;28;20025;-75
2021/11/23 10:46:18;;;;;;;5.13;0.60;;;11.40;92.80;;;;;;5088723;28;20112;-74
2021/11/23 10:48:58;;;;;;;6.05;0.82;;;11.40;92.90;;;;;;5087986;28;20039;-74
2021/11/23 10:51:35;;;;;;;2.60;0.52;;;11.50;92.90;;;;;;5090547;28;20031;-75
2021/11/23 10:54:16;;;;;;;5.22;0.95;;;11.50;92.90;;;;;;5087739;28;20024;-74
2021/11/23 10:56:58;;;;;;;2.80;0.50;;;11.60;92.90;;;;;;5092071;28;20036;-74
2021/11/23 10:59:24;;;;;;;4.68;1.00;;;11.60;92.80;;;;;;5080291;28;20467;-74
2021/11/23 11:01:50;;;;;;;3.75;0.60;;;11.60;92.80;;;;;;5094548;28;20506;-74
2021/11/23 11:04:18;;;;;;;4.32;0.70;;;11.70;92.80;;;;;;5093422;28;20025;-75
2021/11/23 11:06:44;;;;;;;3.03;0.65;;;11.70;92.70;;;;;;5094208;28;20040;-74
2021/11/23 11:09:10;;;;;;;2.60;0.93;;;11.80;92.70;;;;;;5081391;28;20028;-74
2021/11/23 11:11:38;;;;;;;3.50;0.70;;;11.70;92.70;;;;;;5094190;28;20032;-74
2021/11/23 11:14:05;;;;;;;3.90;0.70;;;11.70;92.70;;;;;;5094195;28;20020;-74
2021/11/23 11:16:36;;;;;;;3.50;1.35;;;11.80;92.70;;;;;;5091730;28;20043;-74
2021/11/23 11:19:06;;;;;;;4.22;1.08;;;11.70;92.80;;;;;;5093713;28;20035;-74
2021/11/23 11:21:41;;;;;;;5.65;1.15;;;11.80;92.80;;;;;;5090508;28;20057;-74
2021/11/23 11:24:35;;;;;;;14.50;1.35;;;11.80;92.70;;;;;;5091603;28;20039;-74
2021/11/23 11:27:15;;;;;;;9.95;1.08;;;11.80;92.70;;;;;;5093168;28;20070;-74
2021/11/23 11:29:45;;;;;;;4.57;0.70;;;11.90;92.80;;;;;;5091399;28;20098;-75
2021/11/23 11:32:31;;;;;;;5.13;0.90;;;11.90;92.70;;;;;;5081908;28;20035;-74
2021/11/23 11:35:26;;;;;;;7.57;1.52;;;11.90;92.90;;;;;;5092792;28;20039;-75
2021/11/23 11:38:00;;;;;;;13.57;1.60;;;12.10;92.90;;;;;;5085081;28;20024;-75
2021/11/23 11:40:34;;;;;;;9.82;1.35;;;12.10;92.90;;;;;;5092637;28;20487;-74
2021/11/23 11:43:08;;;;;;;9.63;1.48;;;12.10;92.90;;;;;;5084177;28;20048;-74
2021/11/23 11:45:44;;;;;;;9.52;1.00;;;12.30;93.00;;;;;;5090434;28;20026;-74
2021/11/23 11:48:23;;;;;;;6.68;1.08;;;12.30;92.90;;;;;;5092968;28;20063;-74
2021/11/23 11:51:08;;;;;;;11.93;1.58;;;12.30;92.70;;;;;;5089947;28;20036;-74
2021/11/23 11:53:42;;;;;;;14.77;1.75;;;12.40;92.60;;;;;;5088368;28;20043;-75
2021/11/23 11:56:09;;;;;;;6.00;1.02;;;12.40;92.60;;;;;;5086558;28;20025;-74
2021/11/23 11:58:56;;;;;;;12.70;1.38;;;12.50;92.70;;;;;;5090018;28;20032;-75
2021/11/23 12:01:36;;;;;;;12.00;1.63;;;12.50;92.80;;;;;;5093736;28;20101;-74
2021/11/23 12:04:16;;;;;;;17.90;1.40;;;12.50;92.80;;;;;;5086548;28;20494;-75
2021/11/23 12:06:59;;;;;;;6.97;1.30;;;12.60;92.70;;;;;;5074798;28;20472;-74
2021/11/23 12:09:38;;;;;;;10.98;1.27;;;12.60;92.60;;;;;;5088162;28;20037;-77
2021/11/23 12:12:10;;;;;;;8.30;1.50;;;12.60;92.40;;;;;;5093833;28;20524;-75
2021/11/23 12:14:56;;;;;;;6.57;1.10;;;12.60;92.30;;;;;;5092906;28;20178;-78
2021/11/23 12:18:02;;;;;;;12.40;1.55;;;12.60;92.20;;;;;;5093593;28;20036;-79
2021/11/23 12:20:32;;;;;;;8.18;1.23;;;12.70;92.20;;;;;;5083026;28;20044;-80
2021/11/23 12:23:18;;;;;;;7.30;1.13;;;12.70;92.20;;;;;;5093821;28;20043;-80
2021/11/23 12:25:57;;;;;;;11.45;1.88;;;12.70;92.10;;;;;;5093401;28;20028;-76
2021/11/23 12:28:25;;;;;;;5.20;0.80;;;12.70;92.00;;;;;;5085466;28;20036;-76
2021/11/23 12:30:52;;;;;;;5.50;1.05;;;12.80;92.00;;;;;;5092765;28;20102;-77
2021/11/23 12:33:18;;;;;;;8.07;1.08;;;12.80;92.00;;;;;;5090319;28;20037;-75
2021/11/23 12:35:44;;;;;;;6.05;1.23;;;12.80;91.80;;;;;;5088827;28;20024;-75
2021/11/23 12:38:32;;;;;;;7.97;1.02;;;12.80;91.70;;;;;;5090610;28;20034;-76
2021/11/23 12:41:12;;;;;;;2.13;0.68;;;12.90;91.50;;;;;;5091382;28;20450;-76
2021/11/23 12:43:38;;;;;;;8.88;1.30;;;12.90;91.70;;;;;;5090376;28;20499;-78
2021/11/23 12:46:14;;;;;;;6.05;1.10;;;12.90;91.50;;;;;;5088309;28;20047;-78
2021/11/23 12:48:41;;;;;;;6.18;1.23;;;12.90;91.80;;;;;;5088822;28;20032;-74